sensor_id;sensor_type;location;lat;lon;timestamp;temperature;humidity
12726;DHT22;6427;49.754;6.106;2023-04-29T00:01:55;13.80;99.90
12726;DHT22;6427;49.754;6.106;2023-04-29T00:04:23;13.80;99.90
12726;DHT22;6427;49.754;6.106;2023-04-29T00:06:51;13.80;99.90
12726;DHT22;6427;49.754;6.106;2023-04-29T00:09:18;13.80;99.90
12726;DHT22;6427;49.754;6.106;2023-04-29T00:11:46;13.80;99.90
12726;DHT22;6427;49.754;6.106;2023-04-29T00:14:14;13.80;99.90
12726;DHT22;6427;49.754;6.106;2023-04-29T00:16:42;13.80;99.90
12726;DHT22;6427;49.754;6.106;2023-04-29T00:19:10;14.00;99.90
12726;DHT22;6427;49.754;6.106;2023-04-29T00:21:37;14.00;99.90
12726;DHT22;6427;49.754;6.106;2023-04-29T00:24:06;13.90;99.90
12726;DHT22;6427;49.754;6.106;2023-04-29T00:26:33;13.90;99.90
12726;DHT22;6427;49.754;6.106;2023-04-29T00:29:01;13.90;99.90
12726;DHT22;6427;49.754;6.106;2023-04-29T00:31:28;14.10;99.90
12726;DHT22;6427;49.754;6.106;2023-04-29T00:33:56;14.00;99.90
12726;DHT22;6427;49.754;6.106;2023-04-29T00:36:23;13.90;99.90
12726;DHT22;6427;49.754;6.106;2023-04-29T00:38:51;13.90;99.90
12726;DHT22;6427;49.754;6.106;2023-04-29T00:41:19;13.80;99.90
12726;DHT22;6427;49.754;6.106;2023-04-29T00:43:46;14.00;99.90
12726;DHT22;6427;49.754;6.106;2023-04-29T00:46:14;13.80;99.90
12726;DHT22;6427;49.754;6.106;2023-04-29T00:48:43;13.70;99.90
12726;DHT22;6427;49.754;6.106;2023-04-29T00:51:10;13.70;99.90
12726;DHT22;6427;49.754;6.106;2023-04-29T00:53:38;13.60;99.90
12726;DHT22;6427;49.754;6.106;2023-04-29T00:56:05;13.60;99.90
12726;DHT22;6427;49.754;6.106;2023-04-29T00:58:33;13.50;99.90
12726;DHT22;6427;49.754;6.106;2023-04-29T01:01:01;13.50;99.90
12726;DHT22;6427;49.754;6.106;2023-04-29T01:03:28;13.40;99.90
12726;DHT22;6427;49.754;6.106;2023-04-29T01:06:03;13.40;99.90
12726;DHT22;6427;49.754;6.106;2023-04-29T01:08:50;13.30;99.90
12726;DHT22;6427;49.754;6.106;2023-04-29T01:11:13;13.30;99.90
12726;DHT22;6427;49.754;6.106;2023-04-29T01:13:50;13.20;99.90
12726;DHT22;6427;49.754;6.106;2023-04-29T01:16:22;13.20;99.90
12726;DHT22;6427;49.754;6.106;2023-04-29T01:18:54;13.10;99.90
12726;DHT22;6427;49.754;6.106;2023-04-29T01:21:21;13.30;99.90
12726;DHT22;6427;49.754;6.106;2023-04-29T01:23:49;13.10;99.90
12726;DHT22;6427;49.754;6.106;2023-04-29T01:26:23;13.10;99.90
12726;DHT22;6427;49.754;6.106;2023-04-29T01:29:01;13.10;99.90
12726;DHT22;6427;49.754;6.106;2023-04-29T01:31:44;13.20;99.90
12726;DHT22;6427;49.754;6.106;2023-04-29T01:36:57;13.00;99.90
12726;DHT22;6427;49.754;6.106;2023-04-29T01:39:25;13.00;99.90
12726;DHT22;6427;49.754;6.106;2023-04-29T01:41:52;12.90;99.90
12726;DHT22;6427;49.754;6.106;2023-04-29T01:44:21;12.90;99.90
12726;DHT22;6427;49.754;6.106;2023-04-29T01:46:50;12.90;99.90
12726;DHT22;6427;49.754;6.106;2023-04-29T01:49:20;12.80;99.90
12726;DHT22;6427;49.754;6.106;2023-04-29T01:51:47;12.80;99.90
12726;DHT22;6427;49.754;6.106;2023-04-29T01:54:15;12.80;99.90
12726;DHT22;6427;49.754;6.106;2023-04-29T01:56:43;12.80;99.90
12726;DHT22;6427;49.754;6.106;2023-04-29T01:59:11;12.80;99.90
12726;DHT22;6427;49.754;6.106;2023-04-29T02:01:39;12.80;99.90
12726;DHT22;6427;49.754;6.106;2023-04-29T02:04:06;13.00;99.90
12726;DHT22;6427;49.754;6.106;2023-04-29T02:06:34;13.00;99.90
12726;DHT22;6427;49.754;6.106;2023-04-29T02:09:02;12.90;99.90
12726;DHT22;6427;49.754;6.106;2023-04-29T02:11:29;13.10;99.90
12726;DHT22;6427;49.754;6.106;2023-04-29T02:13:56;13.10;99.90
12726;DHT22;6427;49.754;6.106;2023-04-29T02:16:24;13.00;99.90
12726;DHT22;6427;49.754;6.106;2023-04-29T02:18:52;12.90;99.90
12726;DHT22;6427;49.754;6.106;2023-04-29T02:21:19;12.90;99.90
12726;DHT22;6427;49.754;6.106;2023-04-29T02:23:48;12.80;99.90
12726;DHT22;6427;49.754;6.106;2023-04-29T02:26:15;12.80;99.90
12726;DHT22;6427;49.754;6.106;2023-04-29T02:28:43;12.80;99.90
12726;DHT22;6427;49.754;6.106;2023-04-29T02:31:10;12.80;99.90
12726;DHT22;6427;49.754;6.106;2023-04-29T02:33:38;12.80;99.90
12726;DHT22;6427;49.754;6.106;2023-04-29T02:36:05;12.80;99.90
12726;DHT22;6427;49.754;6.106;2023-04-29T02:38:34;12.80;99.90
12726;DHT22;6427;49.754;6.106;2023-04-29T02:41:02;12.70;99.90
12726;DHT22;6427;49.754;6.106;2023-04-29T02:43:30;12.70;99.90
12726;DHT22;6427;49.754;6.106;2023-04-29T02:45:57;12.70;99.90
12726;DHT22;6427;49.754;6.106;2023-04-29T02:48:25;12.70;99.90
12726;DHT22;6427;49.754;6.106;2023-04-29T02:50:53;12.70;99.90
12726;DHT22;6427;49.754;6.106;2023-04-29T02:53:21;12.70;99.90
12726;DHT22;6427;49.754;6.106;2023-04-29T02:55:48;12.60;99.90
12726;DHT22;6427;49.754;6.106;2023-04-29T02:58:16;12.60;99.90
12726;DHT22;6427;49.754;6.106;2023-04-29T03:00:44;12.80;99.90
12726;DHT22;6427;49.754;6.106;2023-04-29T03:03:11;13.10;99.90
12726;DHT22;6427;49.754;6.106;2023-04-29T03:05:39;13.00;99.90
12726;DHT22;6427;49.754;6.106;2023-04-29T03:08:07;12.90;99.90
12726;DHT22;6427;49.754;6.106;2023-04-29T03:10:35;12.80;99.90
12726;DHT22;6427;49.754;6.106;2023-04-29T03:13:03;12.80;99.90
12726;DHT22;6427;49.754;6.106;2023-04-29T03:15:30;12.70;99.90
12726;DHT22;6427;49.754;6.106;2023-04-29T03:17:58;12.90;99.90
12726;DHT22;6427;49.754;6.106;2023-04-29T03:20:25;12.80;99.90
12726;DHT22;6427;49.754;6.106;2023-04-29T03:22:53;12.70;99.90
12726;DHT22;6427;49.754;6.106;2023-04-29T03:25:21;12.60;99.90
12726;DHT22;6427;49.754;6.106;2023-04-29T03:27:49;12.60;99.90
12726;DHT22;6427;49.754;6.106;2023-04-29T03:30:17;12.60;99.90
12726;DHT22;6427;49.754;6.106;2023-04-29T03:32:44;12.50;99.90
12726;DHT22;6427;49.754;6.106;2023-04-29T03:35:12;12.60;99.90
12726;DHT22;6427;49.754;6.106;2023-04-29T03:37:39;12.50;99.90
12726;DHT22;6427;49.754;6.106;2023-04-29T03:40:07;12.50;99.90
12726;DHT22;6427;49.754;6.106;2023-04-29T03:42:35;12.50;99.90
12726;DHT22;6427;49.754;6.106;2023-04-29T03:45:03;12.50;99.90
12726;DHT22;6427;49.754;6.106;2023-04-29T03:47:31;12.50;99.90
12726;DHT22;6427;49.754;6.106;2023-04-29T03:49:58;12.70;99.90
12726;DHT22;6427;49.754;6.106;2023-04-29T03:52:26;13.00;99.90
12726;DHT22;6427;49.754;6.106;2023-04-29T03:54:54;12.90;99.90
12726;DHT22;6427;49.754;6.106;2023-04-29T03:57:22;12.80;99.90
12726;DHT22;6427;49.754;6.106;2023-04-29T03:59:50;12.80;99.90
12726;DHT22;6427;49.754;6.106;2023-04-29T04:02:18;12.80;99.90
12726;DHT22;6427;49.754;6.106;2023-04-29T04:04:45;12.90;99.90
12726;DHT22;6427;49.754;6.106;2023-04-29T04:07:13;12.90;99.90
12726;DHT22;6427;49.754;6.106;2023-04-29T04:09:41;12.70;99.90
12726;DHT22;6427;49.754;6.106;2023-04-29T04:12:09;12.70;99.90
12726;DHT22;6427;49.754;6.106;2023-04-29T04:14:36;12.60;99.90
12726;DHT22;6427;49.754;6.106;2023-04-29T04:17:04;12.60;99.90
12726;DHT22;6427;49.754;6.106;2023-04-29T04:19:32;12.50;99.90
12726;DHT22;6427;49.754;6.106;2023-04-29T04:21:59;12.50;99.90
12726;DHT22;6427;49.754;6.106;2023-04-29T04:24:28;12.50;99.90
12726;DHT22;6427;49.754;6.106;2023-04-29T04:26:55;12.50;99.90
12726;DHT22;6427;49.754;6.106;2023-04-29T04:29:23;12.50;99.90
12726;DHT22;6427;49.754;6.106;2023-04-29T04:31:50;12.50;99.90
12726;DHT22;6427;49.754;6.106;2023-04-29T04:34:18;12.50;99.90
12726;DHT22;6427;49.754;6.106;2023-04-29T04:36:46;12.50;99.90
12726;DHT22;6427;49.754;6.106;2023-04-29T04:39:13;12.50;99.90
12726;DHT22;6427;49.754;6.106;2023-04-29T04:41:41;12.40;99.90
12726;DHT22;6427;49.754;6.106;2023-04-29T04:44:09;12.50;99.90
12726;DHT22;6427;49.754;6.106;2023-04-29T04:46:36;12.40;99.90
12726;DHT22;6427;49.754;6.106;2023-04-29T04:49:04;12.70;99.90
12726;DHT22;6427;49.754;6.106;2023-04-29T04:51:32;12.70;99.90
12726;DHT22;6427;49.754;6.106;2023-04-29T04:54:00;12.60;99.90
12726;DHT22;6427;49.754;6.106;2023-04-29T04:56:27;12.60;99.90
12726;DHT22;6427;49.754;6.106;2023-04-29T04:58:56;12.60;99.90
12726;DHT22;6427;49.754;6.106;2023-04-29T05:01:23;12.60;99.90
12726;DHT22;6427;49.754;6.106;2023-04-29T05:03:52;12.50;99.90
12726;DHT22;6427;49.754;6.106;2023-04-29T05:06:19;12.50;99.90
12726;DHT22;6427;49.754;6.106;2023-04-29T05:08:47;12.50;99.90
12726;DHT22;6427;49.754;6.106;2023-04-29T05:11:15;12.40;99.90
12726;DHT22;6427;49.754;6.106;2023-04-29T05:13:42;12.70;99.90
12726;DHT22;6427;49.754;6.106;2023-04-29T05:16:09;12.60;99.90
12726;DHT22;6427;49.754;6.106;2023-04-29T05:18:37;12.80;99.90
12726;DHT22;6427;49.754;6.106;2023-04-29T05:21:05;12.80;99.90
12726;DHT22;6427;49.754;6.106;2023-04-29T05:23:32;12.70;99.90
12726;DHT22;6427;49.754;6.106;2023-04-29T05:26:00;12.60;99.90
12726;DHT22;6427;49.754;6.106;2023-04-29T05:28:27;12.60;99.90
12726;DHT22;6427;49.754;6.106;2023-04-29T05:30:56;12.50;99.90
12726;DHT22;6427;49.754;6.106;2023-04-29T05:33:23;12.50;99.90
12726;DHT22;6427;49.754;6.106;2023-04-29T05:35:51;12.40;99.90
12726;DHT22;6427;49.754;6.106;2023-04-29T05:38:18;12.40;99.90
12726;DHT22;6427;49.754;6.106;2023-04-29T05:40:46;12.30;99.90
12726;DHT22;6427;49.754;6.106;2023-04-29T05:43:14;12.30;99.90
12726;DHT22;6427;49.754;6.106;2023-04-29T05:45:45;12.20;99.90
12726;DHT22;6427;49.754;6.106;2023-04-29T05:48:09;12.40;99.90
12726;DHT22;6427;49.754;6.106;2023-04-29T05:50:37;12.40;99.90
12726;DHT22;6427;49.754;6.106;2023-04-29T05:53:04;12.30;99.90
12726;DHT22;6427;49.754;6.106;2023-04-29T05:55:32;12.20;99.90
12726;DHT22;6427;49.754;6.106;2023-04-29T05:57:59;12.10;99.90
12726;DHT22;6427;49.754;6.106;2023-04-29T06:00:27;12.10;99.90
12726;DHT22;6427;49.754;6.106;2023-04-29T06:02:54;12.10;99.90
12726;DHT22;6427;49.754;6.106;2023-04-29T06:05:22;12.30;99.90
12726;DHT22;6427;49.754;6.106;2023-04-29T06:07:50;12.30;99.90
12726;DHT22;6427;49.754;6.106;2023-04-29T06:10:17;12.30;99.90
12726;DHT22;6427;49.754;6.106;2023-04-29T06:12:45;12.20;99.90
12726;DHT22;6427;49.754;6.106;2023-04-29T06:15:12;12.20;99.90
12726;DHT22;6427;49.754;6.106;2023-04-29T06:17:40;12.20;99.90
12726;DHT22;6427;49.754;6.106;2023-04-29T06:20:08;12.10;99.90
12726;DHT22;6427;49.754;6.106;2023-04-29T06:22:36;12.10;99.90
12726;DHT22;6427;49.754;6.106;2023-04-29T06:25:03;12.10;99.90
12726;DHT22;6427;49.754;6.106;2023-04-29T06:27:32;12.10;99.90
12726;DHT22;6427;49.754;6.106;2023-04-29T06:29:59;12.10;99.90
12726;DHT22;6427;49.754;6.106;2023-04-29T06:32:27;12.10;99.90
12726;DHT22;6427;49.754;6.106;2023-04-29T06:34:55;12.10;99.90
12726;DHT22;6427;49.754;6.106;2023-04-29T06:37:22;12.10;99.90
12726;DHT22;6427;49.754;6.106;2023-04-29T06:39:51;12.10;99.90
12726;DHT22;6427;49.754;6.106;2023-04-29T06:42:18;12.10;99.90
12726;DHT22;6427;49.754;6.106;2023-04-29T06:44:47;12.20;99.90
12726;DHT22;6427;49.754;6.106;2023-04-29T06:47:14;12.20;99.90
12726;DHT22;6427;49.754;6.106;2023-04-29T06:49:42;12.20;99.90
12726;DHT22;6427;49.754;6.106;2023-04-29T06:52:10;12.20;99.90
12726;DHT22;6427;49.754;6.106;2023-04-29T06:54:38;12.20;99.90
12726;DHT22;6427;49.754;6.106;2023-04-29T06:57:05;12.20;99.90
12726;DHT22;6427;49.754;6.106;2023-04-29T06:59:33;12.30;99.90
12726;DHT22;6427;49.754;6.106;2023-04-29T07:02:00;12.30;99.90
12726;DHT22;6427;49.754;6.106;2023-04-29T07:04:28;12.50;99.90
12726;DHT22;6427;49.754;6.106;2023-04-29T07:06:57;12.50;99.90
12726;DHT22;6427;49.754;6.106;2023-04-29T07:09:24;12.50;99.90
12726;DHT22;6427;49.754;6.106;2023-04-29T07:11:52;12.50;99.90
12726;DHT22;6427;49.754;6.106;2023-04-29T07:14:19;12.50;99.90
12726;DHT22;6427;49.754;6.106;2023-04-29T07:16:51;12.50;99.90
12726;DHT22;6427;49.754;6.106;2023-04-29T07:19:15;12.50;99.90
12726;DHT22;6427;49.754;6.106;2023-04-29T07:21:43;12.40;99.90
12726;DHT22;6427;49.754;6.106;2023-04-29T07:24:10;12.60;99.90
12726;DHT22;6427;49.754;6.106;2023-04-29T07:26:38;12.80;99.90
12726;DHT22;6427;49.754;6.106;2023-04-29T07:29:06;12.80;99.90
12726;DHT22;6427;49.754;6.106;2023-04-29T07:31:33;12.70;99.90
12726;DHT22;6427;49.754;6.106;2023-04-29T07:34:01;12.70;99.90
12726;DHT22;6427;49.754;6.106;2023-04-29T07:36:28;12.70;99.90
12726;DHT22;6427;49.754;6.106;2023-04-29T07:38:56;12.60;99.90
12726;DHT22;6427;49.754;6.106;2023-04-29T07:41:23;12.60;99.90
12726;DHT22;6427;49.754;6.106;2023-04-29T07:43:52;12.50;99.90
12726;DHT22;6427;49.754;6.106;2023-04-29T07:46:19;12.50;99.90
12726;DHT22;6427;49.754;6.106;2023-04-29T07:48:47;12.50;99.90
12726;DHT22;6427;49.754;6.106;2023-04-29T07:51:14;12.50;99.90
12726;DHT22;6427;49.754;6.106;2023-04-29T07:53:43;12.50;99.90
12726;DHT22;6427;49.754;6.106;2023-04-29T07:56:10;12.50;99.90
12726;DHT22;6427;49.754;6.106;2023-04-29T07:58:38;12.50;99.90
12726;DHT22;6427;49.754;6.106;2023-04-29T08:01:08;12.50;99.90
12726;DHT22;6427;49.754;6.106;2023-04-29T08:03:37;12.60;99.90
12726;DHT22;6427;49.754;6.106;2023-04-29T08:06:04;12.60;99.90
12726;DHT22;6427;49.754;6.106;2023-04-29T08:08:32;12.60;99.90
12726;DHT22;6427;49.754;6.106;2023-04-29T08:10:59;12.60;99.90
12726;DHT22;6427;49.754;6.106;2023-04-29T08:13:27;12.70;99.90
12726;DHT22;6427;49.754;6.106;2023-04-29T08:15:54;12.70;99.90
12726;DHT22;6427;49.754;6.106;2023-04-29T08:18:22;12.70;99.90
12726;DHT22;6427;49.754;6.106;2023-04-29T08:20:50;12.70;99.90
12726;DHT22;6427;49.754;6.106;2023-04-29T08:23:18;12.70;99.90
12726;DHT22;6427;49.754;6.106;2023-04-29T08:25:45;12.60;99.90
12726;DHT22;6427;49.754;6.106;2023-04-29T08:28:13;12.60;99.90
12726;DHT22;6427;49.754;6.106;2023-04-29T08:30:42;12.80;99.90
12726;DHT22;6427;49.754;6.106;2023-04-29T08:33:09;12.80;99.90
12726;DHT22;6427;49.754;6.106;2023-04-29T08:35:37;12.80;99.90
12726;DHT22;6427;49.754;6.106;2023-04-29T08:38:04;12.70;99.90
12726;DHT22;6427;49.754;6.106;2023-04-29T08:40:37;13.00;99.90
12726;DHT22;6427;49.754;6.106;2023-04-29T08:43:03;12.90;99.90
12726;DHT22;6427;49.754;6.106;2023-04-29T08:45:31;13.00;99.90
12726;DHT22;6427;49.754;6.106;2023-04-29T08:47:59;12.90;99.90
12726;DHT22;6427;49.754;6.106;2023-04-29T08:50:26;12.90;99.90
12726;DHT22;6427;49.754;6.106;2023-04-29T08:52:54;12.90;99.90
12726;DHT22;6427;49.754;6.106;2023-04-29T08:55:22;12.90;99.90
12726;DHT22;6427;49.754;6.106;2023-04-29T08:57:49;12.90;99.90
12726;DHT22;6427;49.754;6.106;2023-04-29T09:00:17;12.90;99.90
12726;DHT22;6427;49.754;6.106;2023-04-29T09:02:52;12.90;99.90
12726;DHT22;6427;49.754;6.106;2023-04-29T09:05:19;12.90;99.90
12726;DHT22;6427;49.754;6.106;2023-04-29T09:07:47;13.20;99.90
12726;DHT22;6427;49.754;6.106;2023-04-29T09:10:14;13.20;99.90
12726;DHT22;6427;49.754;6.106;2023-04-29T09:12:42;13.20;99.90
12726;DHT22;6427;49.754;6.106;2023-04-29T09:15:10;13.20;99.90
12726;DHT22;6427;49.754;6.106;2023-04-29T09:25:16;13.10;99.90
12726;DHT22;6427;49.754;6.106;2023-04-29T09:27:44;13.10;99.90
12726;DHT22;6427;49.754;6.106;2023-04-29T09:30:11;13.10;99.90
12726;DHT22;6427;49.754;6.106;2023-04-29T09:32:39;13.10;99.90
12726;DHT22;6427;49.754;6.106;2023-04-29T09:35:25;13.10;99.90
12726;DHT22;6427;49.754;6.106;2023-04-29T09:37:52;13.10;99.90
12726;DHT22;6427;49.754;6.106;2023-04-29T09:40:29;13.10;99.90
12726;DHT22;6427;49.754;6.106;2023-04-29T09:42:59;13.30;99.90
12726;DHT22;6427;49.754;6.106;2023-04-29T09:45:38;13.30;99.90
12726;DHT22;6427;49.754;6.106;2023-04-29T09:48:05;13.20;99.90
12726;DHT22;6427;49.754;6.106;2023-04-29T09:50:36;13.20;99.90
12726;DHT22;6427;49.754;6.106;2023-04-29T09:53:03;13.10;99.90
12726;DHT22;6427;49.754;6.106;2023-04-29T09:55:31;13.10;99.90
12726;DHT22;6427;49.754;6.106;2023-04-29T09:57:59;13.10;99.90
12726;DHT22;6427;49.754;6.106;2023-04-29T10:00:31;13.10;99.90
12726;DHT22;6427;49.754;6.106;2023-04-29T10:02:54;13.20;99.90
12726;DHT22;6427;49.754;6.106;2023-04-29T10:05:24;13.30;99.90
12726;DHT22;6427;49.754;6.106;2023-04-29T10:07:50;13.20;99.90
12726;DHT22;6427;49.754;6.106;2023-04-29T10:10:18;13.30;99.90
12726;DHT22;6427;49.754;6.106;2023-04-29T10:12:46;13.40;99.90
12726;DHT22;6427;49.754;6.106;2023-04-29T10:15:21;13.40;99.90
12726;DHT22;6427;49.754;6.106;2023-04-29T10:18:12;13.40;99.90
12726;DHT22;6427;49.754;6.106;2023-04-29T10:20:23;13.40;99.90
12726;DHT22;6427;49.754;6.106;2023-04-29T10:22:52;13.40;99.90
12726;DHT22;6427;49.754;6.106;2023-04-29T10:25:19;13.40;99.90
12726;DHT22;6427;49.754;6.106;2023-04-29T10:27:47;13.40;99.90
12726;DHT22;6427;49.754;6.106;2023-04-29T10:30:15;13.40;99.90
12726;DHT22;6427;49.754;6.106;2023-04-29T10:32:43;13.40;99.90
12726;DHT22;6427;49.754;6.106;2023-04-29T10:35:11;13.50;99.90
12726;DHT22;6427;49.754;6.106;2023-04-29T10:37:39;13.50;99.90
12726;DHT22;6427;49.754;6.106;2023-04-29T10:40:09;13.60;99.90
12726;DHT22;6427;49.754;6.106;2023-04-29T10:45:29;13.70;99.90
12726;DHT22;6427;49.754;6.106;2023-04-29T10:53:16;13.90;99.90
12726;DHT22;6427;49.754;6.106;2023-04-29T10:55:45;14.10;99.90
12726;DHT22;6427;49.754;6.106;2023-04-29T10:58:34;14.20;99.90
12726;DHT22;6427;49.754;6.106;2023-04-29T11:01:00;14.10;99.90
12726;DHT22;6427;49.754;6.106;2023-04-29T11:03:50;14.10;99.90
12726;DHT22;6427;49.754;6.106;2023-04-29T11:06:17;14.30;99.90
12726;DHT22;6427;49.754;6.106;2023-04-29T11:08:45;14.20;99.90
12726;DHT22;6427;49.754;6.106;2023-04-29T11:11:13;14.20;99.90
12726;DHT22;6427;49.754;6.106;2023-04-29T11:13:40;14.20;99.90
12726;DHT22;6427;49.754;6.106;2023-04-29T11:16:08;14.20;99.90
12726;DHT22;6427;49.754;6.106;2023-04-29T11:18:36;14.40;99.90
12726;DHT22;6427;49.754;6.106;2023-04-29T11:23:40;14.40;99.90
12726;DHT22;6427;49.754;6.106;2023-04-29T11:26:07;14.40;99.90
12726;DHT22;6427;49.754;6.106;2023-04-29T11:28:35;14.30;99.90
12726;DHT22;6427;49.754;6.106;2023-04-29T11:31:03;14.40;99.90
12726;DHT22;6427;49.754;6.106;2023-04-29T11:33:30;14.30;99.90
12726;DHT22;6427;49.754;6.106;2023-04-29T11:35:58;14.30;99.90
12726;DHT22;6427;49.754;6.106;2023-04-29T11:38:29;14.20;99.90
12726;DHT22;6427;49.754;6.106;2023-04-29T11:40:56;14.20;99.90
12726;DHT22;6427;49.754;6.106;2023-04-29T11:43:23;14.20;99.90
12726;DHT22;6427;49.754;6.106;2023-04-29T11:45:51;14.30;99.90
12726;DHT22;6427;49.754;6.106;2023-04-29T11:48:21;14.30;99.90
12726;DHT22;6427;49.754;6.106;2023-04-29T11:50:59;14.30;99.90
12726;DHT22;6427;49.754;6.106;2023-04-29T11:53:20;14.30;99.90
12726;DHT22;6427;49.754;6.106;2023-04-29T11:55:47;14.30;99.90
12726;DHT22;6427;49.754;6.106;2023-04-29T11:58:15;14.30;99.90
12726;DHT22;6427;49.754;6.106;2023-04-29T12:00:42;14.20;99.90
12726;DHT22;6427;49.754;6.106;2023-04-29T12:03:14;14.10;99.90
12726;DHT22;6427;49.754;6.106;2023-04-29T12:05:50;14.10;99.90
12726;DHT22;6427;49.754;6.106;2023-04-29T12:08:23;14.10;99.90
12726;DHT22;6427;49.754;6.106;2023-04-29T12:10:53;14.10;99.90
12726;DHT22;6427;49.754;6.106;2023-04-29T12:13:20;13.90;99.90
12726;DHT22;6427;49.754;6.106;2023-04-29T12:15:48;13.80;99.90
12726;DHT22;6427;49.754;6.106;2023-04-29T12:18:16;13.80;99.90
12726;DHT22;6427;49.754;6.106;2023-04-29T12:20:43;13.80;99.90
12726;DHT22;6427;49.754;6.106;2023-04-29T12:23:13;13.80;99.90
12726;DHT22;6427;49.754;6.106;2023-04-29T12:25:40;13.80;99.90
12726;DHT22;6427;49.754;6.106;2023-04-29T12:28:12;13.80;99.90
12726;DHT22;6427;49.754;6.106;2023-04-29T12:30:39;13.70;99.90
12726;DHT22;6427;49.754;6.106;2023-04-29T12:33:10;13.80;99.90
12726;DHT22;6427;49.754;6.106;2023-04-29T12:35:38;13.80;99.90
12726;DHT22;6427;49.754;6.106;2023-04-29T12:38:06;13.80;99.90
12726;DHT22;6427;49.754;6.106;2023-04-29T12:40:33;13.90;99.90
12726;DHT22;6427;49.754;6.106;2023-04-29T12:43:09;13.90;99.90
12726;DHT22;6427;49.754;6.106;2023-04-29T12:45:37;13.90;99.90
12726;DHT22;6427;49.754;6.106;2023-04-29T12:48:03;14.00;99.90
12726;DHT22;6427;49.754;6.106;2023-04-29T12:50:35;14.00;99.90
12726;DHT22;6427;49.754;6.106;2023-04-29T12:52:59;14.00;99.90
12726;DHT22;6427;49.754;6.106;2023-04-29T12:55:26;14.20;99.90
12726;DHT22;6427;49.754;6.106;2023-04-29T12:57:55;14.20;99.90
12726;DHT22;6427;49.754;6.106;2023-04-29T13:00:22;14.20;99.90
12726;DHT22;6427;49.754;6.106;2023-04-29T13:02:50;14.20;99.90
12726;DHT22;6427;49.754;6.106;2023-04-29T13:05:17;14.20;99.90
12726;DHT22;6427;49.754;6.106;2023-04-29T13:07:45;14.20;99.90
12726;DHT22;6427;49.754;6.106;2023-04-29T13:10:13;14.40;99.90
12726;DHT22;6427;49.754;6.106;2023-04-29T13:12:41;14.40;99.90
12726;DHT22;6427;49.754;6.106;2023-04-29T13:15:09;14.40;99.90
12726;DHT22;6427;49.754;6.106;2023-04-29T13:17:37;14.40;99.90
12726;DHT22;6427;49.754;6.106;2023-04-29T13:20:05;14.40;99.90
12726;DHT22;6427;49.754;6.106;2023-04-29T13:22:32;14.40;99.90
12726;DHT22;6427;49.754;6.106;2023-04-29T13:25:01;14.30;99.90
12726;DHT22;6427;49.754;6.106;2023-04-29T13:27:28;14.30;99.90
12726;DHT22;6427;49.754;6.106;2023-04-29T13:29:56;14.20;99.90
12726;DHT22;6427;49.754;6.106;2023-04-29T13:32:23;14.20;99.90
12726;DHT22;6427;49.754;6.106;2023-04-29T13:34:52;14.10;99.90
12726;DHT22;6427;49.754;6.106;2023-04-29T13:37:19;14.10;99.90
12726;DHT22;6427;49.754;6.106;2023-04-29T13:39:47;14.10;99.90
12726;DHT22;6427;49.754;6.106;2023-04-29T13:42:14;14.20;99.90
12726;DHT22;6427;49.754;6.106;2023-04-29T13:44:42;14.20;99.90
12726;DHT22;6427;49.754;6.106;2023-04-29T13:47:10;14.20;99.90
12726;DHT22;6427;49.754;6.106;2023-04-29T13:49:40;14.20;99.90
12726;DHT22;6427;49.754;6.106;2023-04-29T13:52:04;14.30;99.90
12726;DHT22;6427;49.754;6.106;2023-04-29T13:54:32;14.30;99.90
12726;DHT22;6427;49.754;6.106;2023-04-29T13:56:59;14.50;99.90
12726;DHT22;6427;49.754;6.106;2023-04-29T13:59:27;14.50;99.90
12726;DHT22;6427;49.754;6.106;2023-04-29T14:01:55;14.40;99.90
12726;DHT22;6427;49.754;6.106;2023-04-29T14:04:24;14.40;99.90
12726;DHT22;6427;49.754;6.106;2023-04-29T14:06:51;14.40;99.90
12726;DHT22;6427;49.754;6.106;2023-04-29T14:09:19;14.40;99.90
12726;DHT22;6427;49.754;6.106;2023-04-29T14:11:46;14.30;99.90
12726;DHT22;6427;49.754;6.106;2023-04-29T14:14:14;14.40;99.90
12726;DHT22;6427;49.754;6.106;2023-04-29T14:16:41;14.30;99.90
12726;DHT22;6427;49.754;6.106;2023-04-29T14:19:09;14.60;99.90
12726;DHT22;6427;49.754;6.106;2023-04-29T14:21:37;14.50;99.90
12726;DHT22;6427;49.754;6.106;2023-04-29T14:24:05;14.50;99.90
12726;DHT22;6427;49.754;6.106;2023-04-29T14:26:32;14.50;99.90
12726;DHT22;6427;49.754;6.106;2023-04-29T14:29:00;14.60;99.90
12726;DHT22;6427;49.754;6.106;2023-04-29T14:31:28;14.60;99.90
12726;DHT22;6427;49.754;6.106;2023-04-29T14:33:56;14.60;99.90
12726;DHT22;6427;49.754;6.106;2023-04-29T14:36:24;14.40;99.90
12726;DHT22;6427;49.754;6.106;2023-04-29T14:38:51;14.40;99.90
12726;DHT22;6427;49.754;6.106;2023-04-29T14:41:19;14.40;99.90
12726;DHT22;6427;49.754;6.106;2023-04-29T14:43:49;14.40;99.90
12726;DHT22;6427;49.754;6.106;2023-04-29T14:46:17;14.30;99.90
12726;DHT22;6427;49.754;6.106;2023-04-29T14:48:46;14.40;99.90
12726;DHT22;6427;49.754;6.106;2023-04-29T14:51:13;14.40;99.90
12726;DHT22;6427;49.754;6.106;2023-04-29T14:53:41;14.40;99.90
12726;DHT22;6427;49.754;6.106;2023-04-29T14:56:10;14.50;99.90
12726;DHT22;6427;49.754;6.106;2023-04-29T14:58:37;14.40;99.90
12726;DHT22;6427;49.754;6.106;2023-04-29T15:01:06;14.40;99.90
12726;DHT22;6427;49.754;6.106;2023-04-29T15:03:33;14.40;99.90
12726;DHT22;6427;49.754;6.106;2023-04-29T15:06:02;14.30;99.90
12726;DHT22;6427;49.754;6.106;2023-04-29T15:08:29;14.30;99.90
12726;DHT22;6427;49.754;6.106;2023-04-29T15:10:57;14.30;99.90
12726;DHT22;6427;49.754;6.106;2023-04-29T15:13:25;14.20;99.90
12726;DHT22;6427;49.754;6.106;2023-04-29T15:15:53;14.20;99.90
12726;DHT22;6427;49.754;6.106;2023-04-29T15:18:20;14.20;99.90
12726;DHT22;6427;49.754;6.106;2023-04-29T15:20:48;14.50;99.90
12726;DHT22;6427;49.754;6.106;2023-04-29T15:23:19;14.50;99.90
12726;DHT22;6427;49.754;6.106;2023-04-29T15:25:46;14.50;99.90
12726;DHT22;6427;49.754;6.106;2023-04-29T15:28:14;14.40;99.90
12726;DHT22;6427;49.754;6.106;2023-04-29T15:30:41;14.40;99.90
12726;DHT22;6427;49.754;6.106;2023-04-29T15:33:10;14.40;99.90
12726;DHT22;6427;49.754;6.106;2023-04-29T15:35:37;14.30;99.90
12726;DHT22;6427;49.754;6.106;2023-04-29T15:38:05;14.40;99.90
12726;DHT22;6427;49.754;6.106;2023-04-29T15:40:33;14.30;99.90
12726;DHT22;6427;49.754;6.106;2023-04-29T15:43:00;14.30;99.90
12726;DHT22;6427;49.754;6.106;2023-04-29T15:45:28;14.30;99.90
12726;DHT22;6427;49.754;6.106;2023-04-29T15:47:56;14.30;99.90
12726;DHT22;6427;49.754;6.106;2023-04-29T15:50:23;14.40;99.90
12726;DHT22;6427;49.754;6.106;2023-04-29T15:52:51;14.40;99.90
12726;DHT22;6427;49.754;6.106;2023-04-29T15:55:18;14.40;99.90
12726;DHT22;6427;49.754;6.106;2023-04-29T15:57:46;14.40;99.90
12726;DHT22;6427;49.754;6.106;2023-04-29T16:00:13;14.40;99.90
12726;DHT22;6427;49.754;6.106;2023-04-29T16:02:41;14.40;99.90
12726;DHT22;6427;49.754;6.106;2023-04-29T16:05:09;14.40;99.90
12726;DHT22;6427;49.754;6.106;2023-04-29T16:07:37;14.40;99.90
12726;DHT22;6427;49.754;6.106;2023-04-29T16:10:04;14.40;99.90
12726;DHT22;6427;49.754;6.106;2023-04-29T16:12:32;14.40;99.90